SLRI/RIB METAR and TAF weather

Enter ICAO airport designator
Station Type Date Time Source
SLRI METAR 2021/10/24 22:00 UTC NOAA

SLRI 242200Z 18015G25KT 8000 VCSH BKN010 FEW020CB OVC070 23/20 Q1011


Station Type Date Time Source
SLRI Decoded METAR 2021/10/24 22:00 UTC NOAA

Riberalta, Bolivia (SLRI) 11-00S 066-07W
Oct 24, 2021 - 06:00 PM EDT / 2021.10.24 2200 UTC
Wind: from the S (180 degrees) at 17 MPH (15 KT) gusting to 29 MPH (25 KT):0
Visibility: 4 mile(s):0
Sky conditions: overcast
Weather: showers in the vicinity; Cumulonimbus clouds observed
Temperature: 73 F (23 C)
Dew Point: 68 F (20 C)
Relative Humidity: 83%
Pressure (altimeter): 29.85 in. Hg (1011 hPa)
ob: SLRI 242200Z 18015G25KT 8000 VCSH BKN010 FEW020CB OVC070 23/20 Q1011
cycle: 22

Station Type Date Time Source
SLRI TAF 2015/11/18 00:29 UTC NOAA

TAF SLRI 182200Z 1900/1924 00000KT 9999 FEW015 TX37/1919Z TN23/1910Z
BECMG 1912/1914 33011KT SCT020
TEMPO 1919/1922 8000 VCSH FEW020 FEW023CB BKN080

Example: see airport list